sensor_id;sensor_type;location;lat;lon;timestamp;temperature;humidity
4828;DHT22;2428;48.732;9.148;2023-08-06T00:00:39;15.90;99.90
4828;DHT22;2428;48.732;9.148;2023-08-06T00:03:05;15.90;99.90
4828;DHT22;2428;48.732;9.148;2023-08-06T00:05:30;15.80;99.90
4828;DHT22;2428;48.732;9.148;2023-08-06T00:07:56;15.80;99.90
4828;DHT22;2428;48.732;9.148;2023-08-06T00:10:21;15.70;99.90
4828;DHT22;2428;48.732;9.148;2023-08-06T00:12:47;15.70;99.90
4828;DHT22;2428;48.732;9.148;2023-08-06T00:15:14;15.70;99.90
4828;DHT22;2428;48.732;9.148;2023-08-06T00:17:39;15.70;99.90
4828;DHT22;2428;48.732;9.148;2023-08-06T00:20:05;15.60;99.90
4828;DHT22;2428;48.732;9.148;2023-08-06T00:22:36;15.60;99.90
4828;DHT22;2428;48.732;9.148;2023-08-06T00:25:03;15.50;99.90
4828;DHT22;2428;48.732;9.148;2023-08-06T00:27:29;15.50;99.90
4828;DHT22;2428;48.732;9.148;2023-08-06T00:29:55;15.40;99.90
4828;DHT22;2428;48.732;9.148;2023-08-06T00:32:21;15.40;99.90
4828;DHT22;2428;48.732;9.148;2023-08-06T00:34:46;15.40;99.90
4828;DHT22;2428;48.732;9.148;2023-08-06T00:37:15;15.30;99.90
4828;DHT22;2428;48.732;9.148;2023-08-06T00:39:41;15.30;99.90
4828;DHT22;2428;48.732;9.148;2023-08-06T00:42:07;15.30;99.90
4828;DHT22;2428;48.732;9.148;2023-08-06T00:44:32;15.20;99.90
4828;DHT22;2428;48.732;9.148;2023-08-06T00:46:58;15.20;99.90
4828;DHT22;2428;48.732;9.148;2023-08-06T00:49:24;15.10;99.90
4828;DHT22;2428;48.732;9.148;2023-08-06T00:51:50;15.10;99.90
4828;DHT22;2428;48.732;9.148;2023-08-06T00:54:15;15.10;99.90
4828;DHT22;2428;48.732;9.148;2023-08-06T00:56:42;15.00;99.90
4828;DHT22;2428;48.732;9.148;2023-08-06T00:59:08;15.00;99.90
4828;DHT22;2428;48.732;9.148;2023-08-06T01:01:35;15.00;99.90
4828;DHT22;2428;48.732;9.148;2023-08-06T01:04:01;14.90;99.90
4828;DHT22;2428;48.732;9.148;2023-08-06T01:06:39;14.90;99.90
4828;DHT22;2428;48.732;9.148;2023-08-06T01:12:18;14.90;99.90
4828;DHT22;2428;48.732;9.148;2023-08-06T01:15:07;14.90;99.90
4828;DHT22;2428;48.732;9.148;2023-08-06T01:17:36;14.90;99.90
4828;DHT22;2428;48.732;9.148;2023-08-06T01:20:03;14.90;99.90
4828;DHT22;2428;48.732;9.148;2023-08-06T01:22:29;14.90;99.90
4828;DHT22;2428;48.732;9.148;2023-08-06T01:24:54;14.80;99.90
4828;DHT22;2428;48.732;9.148;2023-08-06T01:27:28;14.80;99.90
4828;DHT22;2428;48.732;9.148;2023-08-06T01:30:02;14.80;99.90
4828;DHT22;2428;48.732;9.148;2023-08-06T01:32:31;14.80;99.90
4828;DHT22;2428;48.732;9.148;2023-08-06T01:35:00;14.80;99.90
4828;DHT22;2428;48.732;9.148;2023-08-06T01:37:27;14.80;99.90
4828;DHT22;2428;48.732;9.148;2023-08-06T01:39:53;14.70;99.90
4828;DHT22;2428;48.732;9.148;2023-08-06T01:42:19;14.70;99.90
4828;DHT22;2428;48.732;9.148;2023-08-06T01:44:44;14.70;99.90
4828;DHT22;2428;48.732;9.148;2023-08-06T01:47:10;14.70;99.90
4828;DHT22;2428;48.732;9.148;2023-08-06T01:49:36;14.70;99.90
4828;DHT22;2428;48.732;9.148;2023-08-06T01:52:01;14.70;99.90
4828;DHT22;2428;48.732;9.148;2023-08-06T01:54:27;14.70;99.90
4828;DHT22;2428;48.732;9.148;2023-08-06T01:56:53;14.70;99.90
4828;DHT22;2428;48.732;9.148;2023-08-06T01:59:18;14.60;99.90
4828;DHT22;2428;48.732;9.148;2023-08-06T02:01:44;14.70;99.90
4828;DHT22;2428;48.732;9.148;2023-08-06T02:04:10;14.60;99.90
4828;DHT22;2428;48.732;9.148;2023-08-06T02:06:36;14.60;99.90
4828;DHT22;2428;48.732;9.148;2023-08-06T02:09:01;14.50;99.90
4828;DHT22;2428;48.732;9.148;2023-08-06T02:11:27;14.50;99.90
4828;DHT22;2428;48.732;9.148;2023-08-06T02:13:52;14.50;99.90
4828;DHT22;2428;48.732;9.148;2023-08-06T02:16:18;14.40;99.90
4828;DHT22;2428;48.732;9.148;2023-08-06T02:18:43;14.40;99.90
4828;DHT22;2428;48.732;9.148;2023-08-06T02:21:09;14.30;99.90
4828;DHT22;2428;48.732;9.148;2023-08-06T02:23:35;14.20;99.90
4828;DHT22;2428;48.732;9.148;2023-08-06T02:26:01;14.20;99.90
4828;DHT22;2428;48.732;9.148;2023-08-06T02:28:28;14.20;99.90
4828;DHT22;2428;48.732;9.148;2023-08-06T02:30:53;14.20;99.90
4828;DHT22;2428;48.732;9.148;2023-08-06T02:33:19;14.20;99.90
4828;DHT22;2428;48.732;9.148;2023-08-06T02:35:45;14.20;99.90
4828;DHT22;2428;48.732;9.148;2023-08-06T02:38:10;14.10;99.90
4828;DHT22;2428;48.732;9.148;2023-08-06T02:40:36;14.10;99.90
4828;DHT22;2428;48.732;9.148;2023-08-06T02:43:01;14.00;99.90
4828;DHT22;2428;48.732;9.148;2023-08-06T02:45:28;14.00;99.90
4828;DHT22;2428;48.732;9.148;2023-08-06T02:47:54;14.00;99.90
4828;DHT22;2428;48.732;9.148;2023-08-06T02:50:19;14.00;99.90
4828;DHT22;2428;48.732;9.148;2023-08-06T02:52:45;14.00;99.90
4828;DHT22;2428;48.732;9.148;2023-08-06T02:55:10;14.00;99.90
4828;DHT22;2428;48.732;9.148;2023-08-06T02:57:36;13.90;99.90
4828;DHT22;2428;48.732;9.148;2023-08-06T03:00:01;13.90;99.90
4828;DHT22;2428;48.732;9.148;2023-08-06T03:02:27;13.90;99.90
4828;DHT22;2428;48.732;9.148;2023-08-06T03:04:53;13.90;99.90
4828;DHT22;2428;48.732;9.148;2023-08-06T03:07:19;13.80;99.90
4828;DHT22;2428;48.732;9.148;2023-08-06T03:09:44;13.90;99.90
4828;DHT22;2428;48.732;9.148;2023-08-06T03:12:10;13.80;99.90
4828;DHT22;2428;48.732;9.148;2023-08-06T03:14:35;13.80;99.90
4828;DHT22;2428;48.732;9.148;2023-08-06T03:17:01;13.80;99.90
4828;DHT22;2428;48.732;9.148;2023-08-06T03:19:26;13.90;99.90
4828;DHT22;2428;48.732;9.148;2023-08-06T03:21:52;13.90;99.90
4828;DHT22;2428;48.732;9.148;2023-08-06T03:24:18;13.90;99.90
4828;DHT22;2428;48.732;9.148;2023-08-06T03:26:43;13.90;99.90
4828;DHT22;2428;48.732;9.148;2023-08-06T03:29:09;14.00;99.90
4828;DHT22;2428;48.732;9.148;2023-08-06T03:31:34;14.00;99.90
4828;DHT22;2428;48.732;9.148;2023-08-06T03:34:00;14.00;99.90
4828;DHT22;2428;48.732;9.148;2023-08-06T03:36:25;14.00;99.90
4828;DHT22;2428;48.732;9.148;2023-08-06T03:38:51;14.10;99.90
4828;DHT22;2428;48.732;9.148;2023-08-06T03:41:17;14.10;99.90
4828;DHT22;2428;48.732;9.148;2023-08-06T03:43:42;14.00;99.90
4828;DHT22;2428;48.732;9.148;2023-08-06T03:46:08;14.10;99.90
4828;DHT22;2428;48.732;9.148;2023-08-06T03:48:33;14.00;99.90
4828;DHT22;2428;48.732;9.148;2023-08-06T03:50:59;14.00;99.90
4828;DHT22;2428;48.732;9.148;2023-08-06T03:53:26;14.00;99.90
4828;DHT22;2428;48.732;9.148;2023-08-06T03:55:52;14.00;99.90
4828;DHT22;2428;48.732;9.148;2023-08-06T03:58:18;14.00;99.90
4828;DHT22;2428;48.732;9.148;2023-08-06T04:00:43;14.10;99.90
4828;DHT22;2428;48.732;9.148;2023-08-06T04:03:09;14.00;99.90
4828;DHT22;2428;48.732;9.148;2023-08-06T04:05:34;13.90;99.90
4828;DHT22;2428;48.732;9.148;2023-08-06T04:08:00;13.90;99.90
4828;DHT22;2428;48.732;9.148;2023-08-06T04:10:25;13.90;99.90
4828;DHT22;2428;48.732;9.148;2023-08-06T04:12:51;13.90;99.90
4828;DHT22;2428;48.732;9.148;2023-08-06T04:15:16;13.90;99.90
4828;DHT22;2428;48.732;9.148;2023-08-06T04:17:42;13.90;99.90
4828;DHT22;2428;48.732;9.148;2023-08-06T04:20:08;13.90;99.90
4828;DHT22;2428;48.732;9.148;2023-08-06T04:22:34;14.00;99.90
4828;DHT22;2428;48.732;9.148;2023-08-06T04:24:59;13.90;99.90
4828;DHT22;2428;48.732;9.148;2023-08-06T04:27:25;13.90;99.90
4828;DHT22;2428;48.732;9.148;2023-08-06T04:29:51;13.90;99.90
4828;DHT22;2428;48.732;9.148;2023-08-06T04:32:16;13.90;99.90
4828;DHT22;2428;48.732;9.148;2023-08-06T04:34:42;13.90;99.90
4828;DHT22;2428;48.732;9.148;2023-08-06T04:37:08;13.90;99.90
4828;DHT22;2428;48.732;9.148;2023-08-06T04:39:34;13.90;99.90
4828;DHT22;2428;48.732;9.148;2023-08-06T04:41:59;13.90;99.90
4828;DHT22;2428;48.732;9.148;2023-08-06T04:44:25;13.90;99.90
4828;DHT22;2428;48.732;9.148;2023-08-06T04:46:51;14.00;99.90
4828;DHT22;2428;48.732;9.148;2023-08-06T04:49:17;14.00;99.90
4828;DHT22;2428;48.732;9.148;2023-08-06T04:51:43;14.00;99.90
4828;DHT22;2428;48.732;9.148;2023-08-06T04:54:09;13.90;99.90
4828;DHT22;2428;48.732;9.148;2023-08-06T04:56:34;14.00;99.90
4828;DHT22;2428;48.732;9.148;2023-08-06T04:59:00;14.00;99.90
4828;DHT22;2428;48.732;9.148;2023-08-06T05:01:26;14.00;99.90
4828;DHT22;2428;48.732;9.148;2023-08-06T05:03:51;14.00;99.90
4828;DHT22;2428;48.732;9.148;2023-08-06T05:06:17;14.00;99.90
4828;DHT22;2428;48.732;9.148;2023-08-06T05:08:42;14.00;99.90
4828;DHT22;2428;48.732;9.148;2023-08-06T05:11:09;14.00;99.90
4828;DHT22;2428;48.732;9.148;2023-08-06T05:13:35;14.00;99.90
4828;DHT22;2428;48.732;9.148;2023-08-06T05:16:00;14.00;99.90
4828;DHT22;2428;48.732;9.148;2023-08-06T05:18:26;14.00;99.90
4828;DHT22;2428;48.732;9.148;2023-08-06T05:20:51;14.00;99.90
4828;DHT22;2428;48.732;9.148;2023-08-06T05:23:17;13.90;99.90
4828;DHT22;2428;48.732;9.148;2023-08-06T05:25:42;13.90;99.90
4828;DHT22;2428;48.732;9.148;2023-08-06T05:28:08;13.80;99.90
4828;DHT22;2428;48.732;9.148;2023-08-06T05:30:33;13.80;99.90
4828;DHT22;2428;48.732;9.148;2023-08-06T05:33:02;13.80;99.90
4828;DHT22;2428;48.732;9.148;2023-08-06T05:35:28;13.90;99.90
4828;DHT22;2428;48.732;9.148;2023-08-06T05:37:53;13.90;99.90
4828;DHT22;2428;48.732;9.148;2023-08-06T05:40:19;14.00;99.90
4828;DHT22;2428;48.732;9.148;2023-08-06T05:42:44;14.10;99.90
4828;DHT22;2428;48.732;9.148;2023-08-06T05:45:10;14.10;99.90
4828;DHT22;2428;48.732;9.148;2023-08-06T05:47:35;14.10;99.90
4828;DHT22;2428;48.732;9.148;2023-08-06T05:50:01;14.20;99.90
4828;DHT22;2428;48.732;9.148;2023-08-06T05:52:27;14.20;99.90
4828;DHT22;2428;48.732;9.148;2023-08-06T05:54:52;14.20;99.90
4828;DHT22;2428;48.732;9.148;2023-08-06T05:57:18;14.10;99.90
4828;DHT22;2428;48.732;9.148;2023-08-06T05:59:44;14.20;99.90
4828;DHT22;2428;48.732;9.148;2023-08-06T06:02:09;14.20;99.90
4828;DHT22;2428;48.732;9.148;2023-08-06T06:04:35;14.10;99.90
4828;DHT22;2428;48.732;9.148;2023-08-06T06:07:01;14.20;99.90
4828;DHT22;2428;48.732;9.148;2023-08-06T06:09:26;14.10;99.90
4828;DHT22;2428;48.732;9.148;2023-08-06T06:11:52;14.20;99.90
4828;DHT22;2428;48.732;9.148;2023-08-06T06:14:18;14.20;99.90
4828;DHT22;2428;48.732;9.148;2023-08-06T06:16:44;14.30;99.90
4828;DHT22;2428;48.732;9.148;2023-08-06T06:19:09;14.30;99.90
4828;DHT22;2428;48.732;9.148;2023-08-06T06:21:35;14.30;99.90
4828;DHT22;2428;48.732;9.148;2023-08-06T06:24:00;14.30;99.90
4828;DHT22;2428;48.732;9.148;2023-08-06T06:26:26;14.30;99.90
4828;DHT22;2428;48.732;9.148;2023-08-06T06:28:52;14.20;99.90
4828;DHT22;2428;48.732;9.148;2023-08-06T06:31:17;14.10;99.90
4828;DHT22;2428;48.732;9.148;2023-08-06T06:33:43;14.20;99.90
4828;DHT22;2428;48.732;9.148;2023-08-06T06:36:08;14.10;99.90
4828;DHT22;2428;48.732;9.148;2023-08-06T06:38:35;14.10;99.90
4828;DHT22;2428;48.732;9.148;2023-08-06T06:41:00;14.20;99.90
4828;DHT22;2428;48.732;9.148;2023-08-06T06:43:28;14.10;99.90
4828;DHT22;2428;48.732;9.148;2023-08-06T06:45:56;14.10;99.90
4828;DHT22;2428;48.732;9.148;2023-08-06T06:48:23;14.00;99.90
4828;DHT22;2428;48.732;9.148;2023-08-06T06:50:49;14.00;99.90
4828;DHT22;2428;48.732;9.148;2023-08-06T06:53:14;14.00;99.90
4828;DHT22;2428;48.732;9.148;2023-08-06T06:55:40;14.00;99.90
4828;DHT22;2428;48.732;9.148;2023-08-06T06:58:06;14.00;99.90
4828;DHT22;2428;48.732;9.148;2023-08-06T07:00:31;14.00;99.90
4828;DHT22;2428;48.732;9.148;2023-08-06T07:02:57;14.10;99.90
4828;DHT22;2428;48.732;9.148;2023-08-06T07:05:22;14.00;99.90
4828;DHT22;2428;48.732;9.148;2023-08-06T07:07:48;13.90;99.90
4828;DHT22;2428;48.732;9.148;2023-08-06T07:10:13;13.90;99.90
4828;DHT22;2428;48.732;9.148;2023-08-06T07:12:39;13.90;99.90
4828;DHT22;2428;48.732;9.148;2023-08-06T07:15:06;13.90;99.90
4828;DHT22;2428;48.732;9.148;2023-08-06T07:17:32;13.80;99.90
4828;DHT22;2428;48.732;9.148;2023-08-06T07:19:57;13.70;99.90
4828;DHT22;2428;48.732;9.148;2023-08-06T07:22:23;13.70;99.90
4828;DHT22;2428;48.732;9.148;2023-08-06T07:24:48;13.70;99.90
4828;DHT22;2428;48.732;9.148;2023-08-06T07:27:14;13.70;99.90
4828;DHT22;2428;48.732;9.148;2023-08-06T07:29:39;13.80;99.90
4828;DHT22;2428;48.732;9.148;2023-08-06T07:32:06;13.70;99.90
4828;DHT22;2428;48.732;9.148;2023-08-06T07:34:32;13.70;99.90
4828;DHT22;2428;48.732;9.148;2023-08-06T07:36:58;13.70;99.90
4828;DHT22;2428;48.732;9.148;2023-08-06T07:39:23;13.70;99.90
4828;DHT22;2428;48.732;9.148;2023-08-06T07:41:49;13.70;99.90
4828;DHT22;2428;48.732;9.148;2023-08-06T07:44:15;13.70;99.90
4828;DHT22;2428;48.732;9.148;2023-08-06T07:46:40;13.80;99.90
4828;DHT22;2428;48.732;9.148;2023-08-06T07:49:09;13.80;99.90
4828;DHT22;2428;48.732;9.148;2023-08-06T07:51:36;13.80;99.90
4828;DHT22;2428;48.732;9.148;2023-08-06T07:54:05;13.90;99.90
4828;DHT22;2428;48.732;9.148;2023-08-06T07:56:34;13.90;99.90
4828;DHT22;2428;48.732;9.148;2023-08-06T07:59:02;14.00;99.90
4828;DHT22;2428;48.732;9.148;2023-08-06T08:01:27;14.10;99.90
4828;DHT22;2428;48.732;9.148;2023-08-06T08:03:53;14.10;99.90
4828;DHT22;2428;48.732;9.148;2023-08-06T08:06:18;14.10;99.90
4828;DHT22;2428;48.732;9.148;2023-08-06T08:08:44;14.20;99.90
4828;DHT22;2428;48.732;9.148;2023-08-06T08:11:09;14.30;99.90
4828;DHT22;2428;48.732;9.148;2023-08-06T08:13:35;14.30;99.90
4828;DHT22;2428;48.732;9.148;2023-08-06T08:16:01;14.30;99.90
4828;DHT22;2428;48.732;9.148;2023-08-06T08:18:27;14.20;99.90
4828;DHT22;2428;48.732;9.148;2023-08-06T08:20:53;14.20;99.90
4828;DHT22;2428;48.732;9.148;2023-08-06T08:23:18;14.20;99.90
4828;DHT22;2428;48.732;9.148;2023-08-06T08:25:44;14.20;99.90
4828;DHT22;2428;48.732;9.148;2023-08-06T08:28:09;14.20;99.90
4828;DHT22;2428;48.732;9.148;2023-08-06T08:30:35;14.20;99.90
4828;DHT22;2428;48.732;9.148;2023-08-06T08:33:03;14.20;99.90
4828;DHT22;2428;48.732;9.148;2023-08-06T08:35:29;14.20;99.90
4828;DHT22;2428;48.732;9.148;2023-08-06T08:37:54;14.20;99.90
4828;DHT22;2428;48.732;9.148;2023-08-06T08:40:22;14.20;99.90
4828;DHT22;2428;48.732;9.148;2023-08-06T08:42:52;14.10;99.90
4828;DHT22;2428;48.732;9.148;2023-08-06T08:45:20;14.10;99.90
4828;DHT22;2428;48.732;9.148;2023-08-06T08:47:47;14.10;99.90
4828;DHT22;2428;48.732;9.148;2023-08-06T08:50:13;14.00;99.90
4828;DHT22;2428;48.732;9.148;2023-08-06T08:52:40;14.10;99.90
4828;DHT22;2428;48.732;9.148;2023-08-06T08:55:07;14.10;99.90
4828;DHT22;2428;48.732;9.148;2023-08-06T08:57:33;14.20;99.90
4828;DHT22;2428;48.732;9.148;2023-08-06T08:59:58;14.30;99.90
4828;DHT22;2428;48.732;9.148;2023-08-06T09:02:25;14.30;99.90
4828;DHT22;2428;48.732;9.148;2023-08-06T09:04:53;14.40;99.90
4828;DHT22;2428;48.732;9.148;2023-08-06T09:07:22;14.50;99.90
4828;DHT22;2428;48.732;9.148;2023-08-06T09:09:49;14.50;99.90
4828;DHT22;2428;48.732;9.148;2023-08-06T09:12:15;14.60;99.90
4828;DHT22;2428;48.732;9.148;2023-08-06T09:14:42;14.60;99.90
4828;DHT22;2428;48.732;9.148;2023-08-06T09:17:08;14.60;99.90
4828;DHT22;2428;48.732;9.148;2023-08-06T09:19:36;14.70;99.90
4828;DHT22;2428;48.732;9.148;2023-08-06T09:22:01;14.80;99.90
4828;DHT22;2428;48.732;9.148;2023-08-06T09:24:27;14.80;99.90
4828;DHT22;2428;48.732;9.148;2023-08-06T09:26:53;14.90;99.90
4828;DHT22;2428;48.732;9.148;2023-08-06T09:29:19;15.00;99.90
4828;DHT22;2428;48.732;9.148;2023-08-06T09:31:47;14.90;99.90
4828;DHT22;2428;48.732;9.148;2023-08-06T09:34:17;15.00;99.90
4828;DHT22;2428;48.732;9.148;2023-08-06T09:36:46;14.90;99.90
4828;DHT22;2428;48.732;9.148;2023-08-06T09:39:20;14.80;99.90
4828;DHT22;2428;48.732;9.148;2023-08-06T09:41:46;14.70;99.90
4828;DHT22;2428;48.732;9.148;2023-08-06T09:44:18;14.60;99.90
4828;DHT22;2428;48.732;9.148;2023-08-06T09:46:48;14.70;99.90
4828;DHT22;2428;48.732;9.148;2023-08-06T09:49:15;14.70;99.90
4828;DHT22;2428;48.732;9.148;2023-08-06T09:51:41;14.80;99.90
4828;DHT22;2428;48.732;9.148;2023-08-06T09:54:07;14.80;99.90
4828;DHT22;2428;48.732;9.148;2023-08-06T09:56:36;14.90;99.90
4828;DHT22;2428;48.732;9.148;2023-08-06T09:59:04;14.80;99.90
4828;DHT22;2428;48.732;9.148;2023-08-06T10:01:35;14.80;99.90
4828;DHT22;2428;48.732;9.148;2023-08-06T10:04:05;14.90;99.90
4828;DHT22;2428;48.732;9.148;2023-08-06T10:06:34;14.90;99.90
4828;DHT22;2428;48.732;9.148;2023-08-06T10:09:01;14.90;99.90
4828;DHT22;2428;48.732;9.148;2023-08-06T10:11:28;14.70;99.90
4828;DHT22;2428;48.732;9.148;2023-08-06T10:14:00;14.50;99.90
4828;DHT22;2428;48.732;9.148;2023-08-06T10:16:29;14.60;99.90
4828;DHT22;2428;48.732;9.148;2023-08-06T10:18:55;14.50;99.90
4828;DHT22;2428;48.732;9.148;2023-08-06T10:21:23;14.50;99.90
4828;DHT22;2428;48.732;9.148;2023-08-06T10:23:54;14.40;99.90
4828;DHT22;2428;48.732;9.148;2023-08-06T10:26:20;14.40;99.90
4828;DHT22;2428;48.732;9.148;2023-08-06T10:28:46;14.50;99.90
4828;DHT22;2428;48.732;9.148;2023-08-06T10:31:11;14.50;99.90
4828;DHT22;2428;48.732;9.148;2023-08-06T10:33:44;14.50;99.90
4828;DHT22;2428;48.732;9.148;2023-08-06T10:36:11;14.60;99.90
4828;DHT22;2428;48.732;9.148;2023-08-06T10:38:48;14.60;99.90
4828;DHT22;2428;48.732;9.148;2023-08-06T10:41:22;14.60;99.90
4828;DHT22;2428;48.732;9.148;2023-08-06T10:43:49;14.50;99.90
4828;DHT22;2428;48.732;9.148;2023-08-06T10:46:27;14.50;99.90
4828;DHT22;2428;48.732;9.148;2023-08-06T10:48:53;14.50;99.90
4828;DHT22;2428;48.732;9.148;2023-08-06T10:51:18;14.70;99.90
4828;DHT22;2428;48.732;9.148;2023-08-06T10:53:45;14.70;99.90
4828;DHT22;2428;48.732;9.148;2023-08-06T10:58:40;14.90;99.90
4828;DHT22;2428;48.732;9.148;2023-08-06T11:01:06;14.80;99.90
4828;DHT22;2428;48.732;9.148;2023-08-06T11:03:33;14.80;99.90
4828;DHT22;2428;48.732;9.148;2023-08-06T11:05:59;14.90;99.90
4828;DHT22;2428;48.732;9.148;2023-08-06T11:08:35;14.90;99.90
4828;DHT22;2428;48.732;9.148;2023-08-06T11:11:11;14.90;99.90
4828;DHT22;2428;48.732;9.148;2023-08-06T11:13:42;14.80;99.90
4828;DHT22;2428;48.732;9.148;2023-08-06T11:16:08;14.70;99.90
4828;DHT22;2428;48.732;9.148;2023-08-06T11:18:34;14.60;99.90
4828;DHT22;2428;48.732;9.148;2023-08-06T11:21:00;14.40;99.90
4828;DHT22;2428;48.732;9.148;2023-08-06T11:23:27;14.40;99.90
4828;DHT22;2428;48.732;9.148;2023-08-06T11:25:54;14.30;99.90
4828;DHT22;2428;48.732;9.148;2023-08-06T11:28:20;14.20;99.90
4828;DHT22;2428;48.732;9.148;2023-08-06T11:30:49;14.10;99.90
4828;DHT22;2428;48.732;9.148;2023-08-06T11:33:21;14.40;99.90
4828;DHT22;2428;48.732;9.148;2023-08-06T11:35:48;14.60;99.90
4828;DHT22;2428;48.732;9.148;2023-08-06T11:38:14;14.50;99.90
4828;DHT22;2428;48.732;9.148;2023-08-06T11:40:40;14.50;99.90
4828;DHT22;2428;48.732;9.148;2023-08-06T11:43:06;14.50;99.90
4828;DHT22;2428;48.732;9.148;2023-08-06T11:45:34;14.40;99.90
4828;DHT22;2428;48.732;9.148;2023-08-06T11:48:00;14.50;99.90
4828;DHT22;2428;48.732;9.148;2023-08-06T11:50:26;14.50;99.90
4828;DHT22;2428;48.732;9.148;2023-08-06T11:53:00;14.50;99.90
4828;DHT22;2428;48.732;9.148;2023-08-06T11:55:27;14.50;99.90
4828;DHT22;2428;48.732;9.148;2023-08-06T11:57:53;14.30;99.90
4828;DHT22;2428;48.732;9.148;2023-08-06T12:00:19;14.20;99.90
4828;DHT22;2428;48.732;9.148;2023-08-06T12:02:48;14.20;99.90
4828;DHT22;2428;48.732;9.148;2023-08-06T12:05:17;14.20;99.90
4828;DHT22;2428;48.732;9.148;2023-08-06T12:07:47;14.30;99.90
4828;DHT22;2428;48.732;9.148;2023-08-06T12:10:14;14.30;99.90
4828;DHT22;2428;48.732;9.148;2023-08-06T12:12:40;14.40;99.90
4828;DHT22;2428;48.732;9.148;2023-08-06T12:15:09;14.50;99.90
4828;DHT22;2428;48.732;9.148;2023-08-06T12:17:36;14.50;99.90
4828;DHT22;2428;48.732;9.148;2023-08-06T12:20:03;14.60;99.90
4828;DHT22;2428;48.732;9.148;2023-08-06T12:22:30;14.60;99.90
4828;DHT22;2428;48.732;9.148;2023-08-06T12:25:00;14.40;99.90
4828;DHT22;2428;48.732;9.148;2023-08-06T12:27:25;14.40;99.90
4828;DHT22;2428;48.732;9.148;2023-08-06T12:29:51;14.40;99.90
4828;DHT22;2428;48.732;9.148;2023-08-06T12:32:17;14.40;99.90
4828;DHT22;2428;48.732;9.148;2023-08-06T12:34:43;14.50;99.90
4828;DHT22;2428;48.732;9.148;2023-08-06T12:37:09;14.50;99.90
4828;DHT22;2428;48.732;9.148;2023-08-06T12:39:36;14.60;99.90
4828;DHT22;2428;48.732;9.148;2023-08-06T12:42:03;14.70;99.90
4828;DHT22;2428;48.732;9.148;2023-08-06T12:44:29;14.80;99.90
4828;DHT22;2428;48.732;9.148;2023-08-06T12:46:54;14.90;99.90
4828;DHT22;2428;48.732;9.148;2023-08-06T12:49:21;14.90;99.90
4828;DHT22;2428;48.732;9.148;2023-08-06T12:51:47;15.00;99.90
4828;DHT22;2428;48.732;9.148;2023-08-06T12:54:13;14.90;99.90
4828;DHT22;2428;48.732;9.148;2023-08-06T12:56:39;14.90;99.90
4828;DHT22;2428;48.732;9.148;2023-08-06T12:59:04;15.00;99.90
4828;DHT22;2428;48.732;9.148;2023-08-06T13:01:30;14.90;99.90
4828;DHT22;2428;48.732;9.148;2023-08-06T13:03:55;14.80;99.90
4828;DHT22;2428;48.732;9.148;2023-08-06T13:06:21;14.80;99.90
4828;DHT22;2428;48.732;9.148;2023-08-06T13:08:47;14.70;99.90
4828;DHT22;2428;48.732;9.148;2023-08-06T13:11:13;14.80;99.90
4828;DHT22;2428;48.732;9.148;2023-08-06T13:13:38;14.80;99.90
4828;DHT22;2428;48.732;9.148;2023-08-06T13:16:04;14.80;99.90
4828;DHT22;2428;48.732;9.148;2023-08-06T13:18:29;14.90;99.90
4828;DHT22;2428;48.732;9.148;2023-08-06T13:20:56;15.00;99.90
4828;DHT22;2428;48.732;9.148;2023-08-06T13:23:22;15.10;99.90
4828;DHT22;2428;48.732;9.148;2023-08-06T13:25:47;15.30;99.90
4828;DHT22;2428;48.732;9.148;2023-08-06T13:28:13;15.30;99.90
4828;DHT22;2428;48.732;9.148;2023-08-06T13:30:41;15.30;99.90
4828;DHT22;2428;48.732;9.148;2023-08-06T13:33:11;15.30;99.90
4828;DHT22;2428;48.732;9.148;2023-08-06T13:35:37;15.40;99.90
4828;DHT22;2428;48.732;9.148;2023-08-06T13:38:03;15.40;99.90
4828;DHT22;2428;48.732;9.148;2023-08-06T13:40:31;15.40;99.90
4828;DHT22;2428;48.732;9.148;2023-08-06T13:42:57;15.40;99.90
4828;DHT22;2428;48.732;9.148;2023-08-06T13:45:23;15.30;99.90
4828;DHT22;2428;48.732;9.148;2023-08-06T13:47:49;15.30;99.90
4828;DHT22;2428;48.732;9.148;2023-08-06T13:50:15;15.30;99.90
4828;DHT22;2428;48.732;9.148;2023-08-06T13:52:40;15.30;99.90
4828;DHT22;2428;48.732;9.148;2023-08-06T13:55:06;15.40;99.90
4828;DHT22;2428;48.732;9.148;2023-08-06T13:57:33;15.40;99.90
4828;DHT22;2428;48.732;9.148;2023-08-06T13:59:59;15.40;99.90
4828;DHT22;2428;48.732;9.148;2023-08-06T14:02:25;15.40;99.90
4828;DHT22;2428;48.732;9.148;2023-08-06T14:04:52;15.40;99.90
4828;DHT22;2428;48.732;9.148;2023-08-06T14:07:18;15.60;99.90
4828;DHT22;2428;48.732;9.148;2023-08-06T14:09:43;15.80;99.90
4828;DHT22;2428;48.732;9.148;2023-08-06T14:12:09;16.00;99.90
4828;DHT22;2428;48.732;9.148;2023-08-06T14:14:35;16.00;99.90
4828;DHT22;2428;48.732;9.148;2023-08-06T14:17:01;15.80;99.90
4828;DHT22;2428;48.732;9.148;2023-08-06T14:19:27;15.90;99.90
4828;DHT22;2428;48.732;9.148;2023-08-06T14:21:52;16.10;99.90
4828;DHT22;2428;48.732;9.148;2023-08-06T14:24:18;16.20;99.90
4828;DHT22;2428;48.732;9.148;2023-08-06T14:26:44;16.00;99.90
4828;DHT22;2428;48.732;9.148;2023-08-06T14:29:10;15.70;99.90
4828;DHT22;2428;48.732;9.148;2023-08-06T14:31:35;15.60;99.90
4828;DHT22;2428;48.732;9.148;2023-08-06T14:34:01;15.60;99.90
4828;DHT22;2428;48.732;9.148;2023-08-06T14:36:26;15.60;99.90
4828;DHT22;2428;48.732;9.148;2023-08-06T14:38:52;15.40;99.90
4828;DHT22;2428;48.732;9.148;2023-08-06T14:41:18;15.20;99.90
4828;DHT22;2428;48.732;9.148;2023-08-06T14:43:43;15.10;99.90
4828;DHT22;2428;48.732;9.148;2023-08-06T14:46:09;15.00;99.90
4828;DHT22;2428;48.732;9.148;2023-08-06T14:48:34;15.00;99.90
4828;DHT22;2428;48.732;9.148;2023-08-06T14:51:00;14.80;99.90
4828;DHT22;2428;48.732;9.148;2023-08-06T14:53:26;14.60;99.90
4828;DHT22;2428;48.732;9.148;2023-08-06T14:55:52;14.80;99.90
4828;DHT22;2428;48.732;9.148;2023-08-06T14:58:17;14.80;99.90
4828;DHT22;2428;48.732;9.148;2023-08-06T15:00:44;14.80;99.90
4828;DHT22;2428;48.732;9.148;2023-08-06T15:03:10;14.70;99.90
4828;DHT22;2428;48.732;9.148;2023-08-06T15:05:35;14.80;99.90
4828;DHT22;2428;48.732;9.148;2023-08-06T15:08:02;14.70;99.90
4828;DHT22;2428;48.732;9.148;2023-08-06T15:10:27;14.70;99.90
4828;DHT22;2428;48.732;9.148;2023-08-06T15:12:53;14.70;99.90
4828;DHT22;2428;48.732;9.148;2023-08-06T15:15:19;14.80;99.90
4828;DHT22;2428;48.732;9.148;2023-08-06T15:17:45;15.10;99.90
4828;DHT22;2428;48.732;9.148;2023-08-06T15:20:11;15.30;99.90
4828;DHT22;2428;48.732;9.148;2023-08-06T15:22:37;15.70;99.90
4828;DHT22;2428;48.732;9.148;2023-08-06T15:25:03;15.70;99.90
4828;DHT22;2428;48.732;9.148;2023-08-06T15:27:29;15.80;99.90
4828;DHT22;2428;48.732;9.148;2023-08-06T15:29:55;15.50;99.90
4828;DHT22;2428;48.732;9.148;2023-08-06T15:32:20;15.50;99.90
4828;DHT22;2428;48.732;9.148;2023-08-06T15:34:48;15.60;99.90
4828;DHT22;2428;48.732;9.148;2023-08-06T15:37:13;15.70;99.90
4828;DHT22;2428;48.732;9.148;2023-08-06T15:39:39;15.50;99.90
4828;DHT22;2428;48.732;9.148;2023-08-06T15:42:06;15.50;99.90
4828;DHT22;2428;48.732;9.148;2023-08-06T15:44:31;15.60;99.90
4828;DHT22;2428;48.732;9.148;2023-08-06T15:46:57;15.70;99.90
4828;DHT22;2428;48.732;9.148;2023-08-06T15:49:22;15.80;99.90
4828;DHT22;2428;48.732;9.148;2023-08-06T15:51:48;16.00;99.90
4828;DHT22;2428;48.732;9.148;2023-08-06T15:54:14;15.90;99.90
4828;DHT22;2428;48.732;9.148;2023-08-06T15:56:39;15.70;99.90
4828;DHT22;2428;48.732;9.148;2023-08-06T15:59:22;15.80;99.90
4828;DHT22;2428;48.732;9.148;2023-08-06T16:01:47;15.80;99.90